Time;durP1;ratioP1;P1;durP2;ratioP2;P2;SDS_P1;SDS_P2;PMS_P1;PMS_P2;Temp;Humidity;BMP_temperature;BMP_pressure;BME280_temperature;BME280_humidity;BME280_pressure;Samples;Min_cycle;Max_cycle;Signal;HPM_P1;HPM_P2
2022/04/24 00:01:53;;;;;;;10.32;6.38;;;;;;;11.11;71.21;98898.28;5004939;28;20042;-93
2022/04/24 00:04:18;;;;;;;14.25;6.43;;;;;;;11.20;70.46;98887.69;5005209;28;20009;-92
2022/04/24 00:06:46;;;;;;;12.02;7.18;;;;;;;11.20;70.47;98901.94;5005236;28;20032;-92
2022/04/24 00:09:13;;;;;;;12.93;6.57;;;;;;;11.15;70.86;98898.53;5003613;28;20045;-92
2022/04/24 00:11:39;;;;;;;9.70;6.03;;;;;;;11.20;70.43;98903.84;5004884;28;20549;-91
2022/04/24 00:14:09;;;;;;;10.43;6.00;;;;;;;11.09;70.89;98900.44;5004571;28;20037;-94
2022/04/24 00:16:35;;;;;;;7.90;4.93;;;;;;;11.00;70.67;98896.75;5005027;28;20407;-92
2022/04/24 00:19:00;;;;;;;10.05;5.03;;;;;;;10.89;70.85;98898.72;5002737;28;20034;-92
2022/04/24 00:21:26;;;;;;;9.43;5.00;;;;;;;10.89;70.49;98896.03;5004555;28;20040;-93
2022/04/24 00:23:51;;;;;;;7.65;4.70;;;;;;;10.83;70.43;98889.91;5003892;28;20049;-92
2022/04/24 00:26:17;;;;;;;9.60;4.90;;;;;;;10.82;70.77;98898.25;5020353;28;20506;-93
2022/04/24 00:28:42;;;;;;;10.52;4.57;;;;;;;10.74;70.81;98901.56;5002905;28;20037;-93
2022/04/24 00:31:09;;;;;;;7.72;4.88;;;;;;;10.69;70.91;98903.19;5004605;28;20627;-94
2022/04/24 00:33:34;;;;;;;7.28;5.00;;;;;;;10.68;70.72;98900.78;5020625;28;20022;-95
2022/04/24 00:36:00;;;;;;;8.35;5.07;;;;;;;10.65;71.09;98901.34;5004936;28;20016;-93
2022/04/24 00:38:25;;;;;;;11.57;4.95;;;;;;;10.55;71.51;98904.13;5003141;28;20033;-92
2022/04/24 00:40:53;;;;;;;6.88;4.55;;;;;;;10.48;72.05;98902.53;5004264;28;20055;-93
2022/04/24 00:43:19;;;;;;;8.65;4.85;;;;;;;10.56;71.58;98906.50;5004965;28;20025;-91
2022/04/24 00:45:45;;;;;;;9.43;4.22;;;;;;;10.57;71.41;98910.03;5004227;28;20048;-93
2022/04/24 00:48:10;;;;;;;7.57;4.05;;;;;;;10.59;71.04;98903.28;5004841;28;20065;-93
2022/04/24 00:50:37;;;;;;;8.43;5.28;;;;;;;10.51;72.01;98893.88;5004069;28;20037;-93
2022/04/24 00:53:03;;;;;;;11.02;5.57;;;;;;;10.59;71.64;98903.28;5003940;28;20033;-93
2022/04/24 00:55:28;;;;;;;11.98;6.82;;;;;;;10.59;71.35;98905.97;5004023;28;20041;-92
2022/04/24 00:57:54;;;;;;;11.07;7.88;;;;;;;10.56;71.44;98914.56;5021139;28;20029;-91
2022/04/24 01:00:20;;;;;;;8.88;6.50;;;;;;;10.56;71.54;98919.97;5035668;28;20024;-92
2022/04/24 01:02:45;;;;;;;11.73;6.97;;;;;;;10.55;71.23;98929.13;5022024;28;20028;-92
2022/04/24 01:05:11;;;;;;;12.55;6.13;;;;;;;10.67;70.49;98918.03;5004554;28;20396;-94
2022/04/24 01:07:36;;;;;;;10.05;6.10;;;;;;;10.70;70.87;98923.63;5003691;28;20052;-93
2022/04/24 01:10:02;;;;;;;9.32;6.32;;;;;;;10.83;70.32;98919.53;5002996;28;20021;-92
2022/04/24 01:12:27;;;;;;;13.10;6.88;;;;;;;10.77;70.93;98928.72;5004080;28;20502;-93
2022/04/24 01:14:53;;;;;;;12.57;6.80;;;;;;;10.68;71.04;98914.25;5019956;28;20052;-93
2022/04/24 01:17:20;;;;;;;11.93;5.85;;;;;;;10.60;70.57;98920.22;5003639;28;20079;-93
2022/04/24 01:19:45;;;;;;;13.18;6.95;;;;;;;10.51;71.07;98926.19;5001582;28;20322;-93
2022/04/24 01:22:10;;;;;;;16.90;6.50;;;;;;;10.45;70.83;98921.13;5019947;28;20079;-93
2022/04/24 01:24:36;;;;;;;16.85;7.25;;;;;;;10.30;71.12;98927.41;5003736;28;20021;-94
2022/04/24 01:27:02;;;;;;;10.38;6.60;;;;;;;10.25;71.18;98920.13;5001992;28;20120;-92
2022/04/24 01:29:27;;;;;;;12.88;6.60;;;;;;;10.15;71.83;98928.25;5018636;28;20100;-93
2022/04/24 01:31:53;;;;;;;11.77;6.75;;;;;;;10.12;72.12;98918.03;5019679;28;20025;-93
2022/04/24 01:34:19;;;;;;;11.73;7.25;;;;;;;10.04;72.30;98916.75;5018738;28;20151;-94
2022/04/24 01:36:45;;;;;;;10.95;6.28;;;;;;;10.18;72.03;98930.38;5002874;28;20028;-93
2022/04/24 01:39:10;;;;;;;14.68;6.82;;;;;;;10.25;71.65;98922.00;5001514;28;20030;-93
2022/04/24 01:41:36;;;;;;;12.70;7.68;;;;;;;10.07;72.17;98910.00;5003424;28;20034;-94
2022/04/24 01:44:01;;;;;;;12.38;7.18;;;;;;;10.03;72.27;98923.19;5003104;28;20029;-94
2022/04/24 01:46:27;;;;;;;14.70;6.82;;;;;;;9.94;72.60;98906.03;5002943;28;20056;-93
2022/04/24 01:48:52;;;;;;;16.33;6.65;;;;;;;9.84;72.94;98904.19;5018088;28;20124;-93
2022/04/24 01:51:19;;;;;;;13.15;6.18;;;;;;;9.93;72.81;98906.31;5018797;28;20491;-93
2022/04/24 01:53:44;;;;;;;12.35;6.53;;;;;;;9.95;72.44;98921.06;5018213;28;20017;-87
2022/04/24 01:56:10;;;;;;;8.80;5.18;;;;;;;9.89;72.51;98908.72;5000223;28;20032;-87
2022/04/24 01:58:36;;;;;;;11.07;6.55;;;;;;;9.92;72.26;98916.25;5016825;28;20502;-86
2022/04/24 02:01:02;;;;;;;11.57;6.13;;;;;;;9.84;72.87;98908.75;4999508;28;20025;-87
2022/04/24 02:03:28;;;;;;;13.27;7.35;;;;;;;9.70;73.19;98905.84;5032988;28;20495;-87
2022/04/24 02:05:53;;;;;;;10.57;7.50;;;;;;;9.76;73.28;98920.09;5032655;28;20484;-87
2022/04/24 02:08:19;;;;;;;12.50;7.63;;;;;;;9.87;72.57;98927.81;5016349;28;20025;-90
2022/04/24 02:10:44;;;;;;;11.68;7.75;;;;;;;9.86;72.94;98926.22;4999465;28;20507;-87
2022/04/24 02:13:10;;;;;;;16.73;7.70;;;;;;;9.75;73.24;98913.88;5016395;28;20095;-86
2022/04/24 02:15:35;;;;;;;20.60;8.35;;;;;;;9.82;73.29;98909.03;5034344;28;20092;-87
2022/04/24 02:18:01;;;;;;;15.40;7.28;;;;;;;9.81;73.11;98915.47;5016899;28;20399;-86
2022/04/24 02:20:26;;;;;;;22.80;7.80;;;;;;;9.83;72.69;98917.91;5016196;28;20037;-87
2022/04/24 02:22:55;;;;;;;14.38;7.95;;;;;;;9.93;72.67;98917.06;5032973;28;20029;-87
2022/04/24 02:25:20;;;;;;;10.60;7.85;;;;;;;9.94;72.34;98918.66;5016908;28;20087;-85
2022/04/24 02:27:46;;;;;;;11.80;7.05;;;;;;;9.96;72.42;98932.63;5016530;28;20033;-86
2022/04/24 02:30:11;;;;;;;12.43;6.60;;;;;;;9.85;72.45;98916.53;5032454;28;20100;-85
2022/04/24 02:32:36;;;;;;;10.90;6.05;;;;;;;9.82;72.67;98914.41;5033661;28;20036;-85
2022/04/24 02:35:02;;;;;;;12.45;7.30;;;;;;;9.87;72.67;98927.81;5032442;28;20038;-85
2022/04/24 02:37:27;;;;;;;11.27;6.60;;;;;;;9.88;72.00;98917.88;5016072;28;20037;-85
2022/04/24 02:39:53;;;;;;;10.30;6.07;;;;;;;9.86;72.66;98928.13;5035651;28;20029;-86
2022/04/24 02:42:18;;;;;;;10.55;5.60;;;;;;;9.86;72.41;98914.66;5019858;28;20029;-85
2022/04/24 02:44:44;;;;;;;7.80;4.70;;;;;;;9.98;71.99;98928.59;5037167;28;20086;-85
2022/04/24 02:47:10;;;;;;;10.48;5.10;;;;;;;9.91;72.01;98928.88;5003073;28;20033;-86
2022/04/24 02:49:35;;;;;;;8.70;5.03;;;;;;;9.81;71.75;98928.91;5036765;28;20040;-84
2022/04/24 02:52:01;;;;;;;6.57;4.78;;;;;;;9.78;71.86;98942.91;5036286;28;20030;-86
2022/04/24 02:54:26;;;;;;;7.80;4.72;;;;;;;9.75;71.93;98938.06;5019511;28;20022;-86
2022/04/24 02:56:55;;;;;;;9.63;4.65;;;;;;;9.67;71.89;98949.38;5036356;28;20038;-86
2022/04/24 02:59:20;;;;;;;17.88;5.82;;;;;;;9.55;72.41;98946.22;5019427;28;20033;-84
2022/04/24 03:01:46;;;;;;;9.23;4.47;;;;;;;9.49;72.56;98935.47;5036905;28;20163;-86
2022/04/24 03:04:12;;;;;;;7.38;5.13;;;;;;;9.55;72.33;98952.38;5036098;28;20459;-85
2022/04/24 03:06:38;;;;;;;6.68;3.78;;;;;;;9.48;72.06;98952.69;5002975;28;20490;-86
2022/04/24 03:09:04;;;;;;;6.82;4.20;;;;;;;9.40;72.43;98955.91;5036148;28;20037;-86
2022/04/24 03:11:30;;;;;;;7.05;4.20;;;;;;;9.38;72.63;98950.00;5035551;28;20033;-86
2022/04/24 03:13:55;;;;;;;9.35;4.57;;;;;;;9.35;72.64;98953.22;5036393;28;20028;-86
2022/04/24 03:16:21;;;;;;;10.88;4.38;;;;;;;9.26;72.58;98949.47;5037046;28;20056;-86
2022/04/24 03:18:46;;;;;;;6.38;3.70;;;;;;;9.27;72.79;98957.25;5036230;28;20499;-86
2022/04/24 03:21:12;;;;;;;6.03;3.70;;;;;;;9.31;72.68;98961.00;5018950;28;20487;-86
2022/04/24 03:23:37;;;;;;;6.97;4.15;;;;;;;9.31;72.54;98957.53;5037146;28;20048;-86
2022/04/24 03:26:03;;;;;;;9.50;4.70;;;;;;;9.18;72.70;98958.06;5019008;28;20030;-86
2022/04/24 03:28:28;;;;;;;5.32;4.05;;;;;;;9.12;73.13;98970.69;5035474;28;20029;-85
2022/04/24 03:30:54;;;;;;;10.60;4.55;;;;;;;9.13;72.85;98975.00;5018356;28;20029;-86
2022/04/24 03:33:19;;;;;;;8.13;4.30;;;;;;;9.07;73.11;98957.28;5002746;28;20392;-86
2022/04/24 03:35:45;;;;;;;10.23;4.18;;;;;;;9.11;73.02;98958.34;5019024;28;20042;-86
2022/04/24 03:38:10;;;;;;;9.27;5.53;;;;;;;9.14;73.09;98973.91;5002209;28;20475;-85
2022/04/24 03:40:35;;;;;;;12.82;4.82;;;;;;;9.08;73.06;98973.09;5034842;28;20079;-86
2022/04/24 03:43:01;;;;;;;17.60;5.10;;;;;;;9.13;72.84;98979.56;5035129;28;20026;-86
2022/04/24 03:45:26;;;;;;;8.70;5.10;;;;;;;9.16;72.79;98992.47;5018224;28;20042;-86
2022/04/24 03:47:52;;;;;;;13.05;5.88;;;;;;;9.17;72.68;98994.06;5019119;28;20404;-87
2022/04/24 03:50:19;;;;;;;6.78;4.32;;;;;;;9.13;72.62;98976.88;5000813;28;20033;-86
2022/04/24 03:52:44;;;;;;;10.60;4.50;;;;;;;9.06;72.79;98991.38;5018865;28;20021;-86
2022/04/24 03:55:09;;;;;;;8.63;4.50;;;;;;;9.09;72.52;98988.16;5001753;28;20095;-86
2022/04/24 03:57:35;;;;;;;12.38;4.82;;;;;;;9.08;72.76;99004.53;5018794;28;20066;-87
2022/04/24 04:00:00;;;;;;;6.68;5.13;;;;;;;9.13;72.42;99006.41;5018296;28;20040;-87
2022/04/24 04:02:26;;;;;;;9.18;5.05;;;;;;;9.14;72.34;99011.53;5002452;28;20483;-87
2022/04/24 04:04:51;;;;;;;10.95;4.72;;;;;;;9.11;72.33;99004.00;5018435;28;20068;-87
2022/04/24 04:07:17;;;;;;;11.00;4.82;;;;;;;9.14;72.32;99000.78;5019222;28;20527;-87
2022/04/24 04:09:42;;;;;;;9.15;5.20;;;;;;;9.14;72.59;99000.78;5018125;28;20026;-85
2022/04/24 04:12:09;;;;;;;9.20;5.88;;;;;;;9.26;72.22;99017.44;5001615;28;20030;-87
2022/04/24 04:14:34;;;;;;;15.68;5.18;;;;;;;9.24;72.22;99008.03;5017783;28;20025;-85
2022/04/24 04:16:59;;;;;;;12.85;5.82;;;;;;;9.32;72.25;99018.25;5001535;28;20040;-86
2022/04/24 04:19:25;;;;;;;8.02;5.60;;;;;;;9.37;72.10;99017.44;5001898;28;20025;-84
2022/04/24 04:21:50;;;;;;;12.07;6.80;;;;;;;9.40;71.97;99015.03;5035863;28;20033;-86
2022/04/24 04:24:16;;;;;;;15.35;7.05;;;;;;;9.46;72.06;99021.19;5017755;28;20032;-86
2022/04/24 04:26:41;;;;;;;12.70;7.03;;;;;;;9.53;71.81;99010.97;5018186;28;20032;-86
2022/04/24 04:29:07;;;;;;;15.23;6.90;;;;;;;9.62;71.42;99017.41;5018280;28;20056;-85
2022/04/24 04:31:33;;;;;;;15.55;7.60;;;;;;;9.62;71.90;99006.66;5017693;28;20017;-86
2022/04/24 04:33:58;;;;;;;8.75;5.65;;;;;;;9.86;71.50;99022.22;5017618;28;20026;-86
2022/04/24 04:36:23;;;;;;;9.65;6.00;;;;;;;9.96;71.39;99027.59;5017920;28;20034;-85
2022/04/24 04:38:49;;;;;;;13.43;5.70;;;;;;;10.04;71.21;99031.59;5018082;28;20035;-86
2022/04/24 04:41:15;;;;;;;9.00;5.43;;;;;;;9.99;71.53;99023.53;5000683;28;20025;-86
2022/04/24 04:43:40;;;;;;;10.30;5.45;;;;;;;10.15;71.32;99035.03;5017483;28;20499;-87
2022/04/24 04:46:05;;;;;;;7.38;4.50;;;;;;;10.27;70.27;99032.84;5001068;28;20041;-86
2022/04/24 04:48:31;;;;;;;5.75;4.15;;;;;;;10.48;69.78;99028.25;5017758;28;20029;-86
2022/04/24 04:50:56;;;;;;;11.57;5.25;;;;;;;10.55;69.46;99033.34;5000154;28;20373;-86
2022/04/24 04:53:22;;;;;;;16.80;5.88;;;;;;;10.55;69.93;99027.94;5034457;28;20022;-86
2022/04/24 04:55:48;;;;;;;12.20;5.50;;;;;;;10.58;69.89;99036.25;5018060;28;20117;-87
2022/04/24 04:58:13;;;;;;;12.85;5.47;;;;;;;10.58;69.86;99033.56;5033574;28;20025;-86
2022/04/24 05:00:39;;;;;;;14.00;6.70;;;;;;;10.64;69.90;99031.66;5016471;28;20104;-87
2022/04/24 05:03:04;;;;;;;10.10;6.05;;;;;;;10.73;69.68;99030.00;5017030;28;20025;-86
2022/04/24 05:05:30;;;;;;;9.93;5.60;;;;;;;10.82;69.56;99031.03;5017205;28;20025;-86
2022/04/24 05:07:55;;;;;;;22.90;20.58;;;;;;;10.95;69.35;99031.50;5017139;28;20492;-86
2022/04/24 05:10:21;;;;;;;5.82;4.38;;;;;;;11.00;68.86;99024.19;5016755;28;20021;-87
2022/04/24 05:12:46;;;;;;;12.07;4.80;;;;;;;11.13;68.67;99031.63;5017004;28;20061;-86
2022/04/24 05:15:13;;;;;;;7.47;4.10;;;;;;;11.22;68.69;99025.63;5017530;28;20029;-87
2022/04/24 05:17:39;;;;;;;6.07;4.25;;;;;;;11.30;67.49;99017.75;5033849;28;20032;-87
2022/04/24 05:20:05;;;;;;;6.97;3.83;;;;;;;11.42;68.17;99024.69;5000127;28;20025;-87
2022/04/24 05:22:30;;;;;;;5.60;3.88;;;;;;;11.56;68.07;99028.34;5017066;28;20029;-86
2022/04/24 05:24:56;;;;;;;6.55;3.30;;;;;;;11.63;67.03;99015.31;5017846;28;20045;-86
2022/04/24 05:27:21;;;;;;;7.13;3.90;;;;;;;11.88;65.68;99017.00;5033597;28;20041;-86
2022/04/24 05:29:47;;;;;;;5.82;3.78;;;;;;;12.06;65.65;99018.16;5032985;28;20036;-84
2022/04/24 05:32:13;;;;;;;6.35;3.30;;;;;;;12.20;64.86;99020.97;5016765;28;20029;-86
2022/04/24 05:34:39;;;;;;;37.88;6.75;;;;;;;12.27;64.97;99015.22;5033362;28;20454;-86
2022/04/24 05:37:05;;;;;;;5.93;3.25;;;;;;;12.30;64.59;98993.03;5034940;28;20037;-87
2022/04/24 05:39:30;;;;;;;9.07;3.47;;;;;;;12.52;64.36;99016.81;5001148;28;20029;-84
2022/04/24 05:41:56;;;;;;;7.32;3.35;;;;;;;12.64;63.43;99006.38;5016113;28;20100;-87
2022/04/24 05:44:21;;;;;;;6.97;3.42;;;;;;;12.83;63.17;99011.00;5000191;28;20038;-87
2022/04/24 05:46:47;;;;;;;7.70;3.65;;;;;;;12.99;62.73;99009.69;5000427;28;20033;-87
2022/04/24 05:49:12;;;;;;;6.40;4.10;;;;;;;13.11;62.25;99001.94;5034363;28;20030;-86
2022/04/24 05:51:38;;;;;;;12.70;6.38;;;;;;;13.19;61.99;99002.34;5032872;28;20033;-87
2022/04/24 05:54:03;;;;;;;16.98;11.68;;;;;;;13.31;61.24;98994.59;5016592;28;20041;-87
2022/04/24 05:56:28;;;;;;;25.38;15.38;;;;;;;13.27;61.76;98997.06;5016758;28;20029;-87
2022/04/24 05:58:54;;;;;;;20.15;15.50;;;;;;;13.40;61.35;98992.03;5033289;28;20025;-87
2022/04/24 06:01:20;;;;;;;15.05;11.18;;;;;;;13.52;60.93;98995.84;5016140;28;20476;-86
2022/04/24 06:03:45;;;;;;;13.02;9.77;;;;;;;13.59;60.77;98991.97;5017169;28;20105;-86
2022/04/24 06:06:11;;;;;;;7.75;6.63;;;;;;;13.78;60.38;98983.78;5016415;28;20033;-86
2022/04/24 06:08:36;;;;;;;10.75;5.22;;;;;;;13.97;59.27;98991.81;5034162;28;20025;-86
2022/04/24 06:11:02;;;;;;;8.55;5.20;;;;;;;14.08;59.44;98987.81;5031865;28;20136;-86
2022/04/24 06:13:28;;;;;;;7.60;5.15;;;;;;;14.13;58.97;98991.22;5034362;28;20053;-85
2022/04/24 06:15:57;;;;;;;8.98;5.50;;;;;;;14.22;59.12;98990.53;5037147;28;20147;-86
2022/04/24 06:18:23;;;;;;;6.93;4.80;;;;;;;14.28;58.84;98990.13;5037339;28;20033;-86
2022/04/24 06:20:49;;;;;;;10.98;4.32;;;;;;;14.45;59.28;98996.81;5019531;28;20033;-86
2022/04/24 06:23:15;;;;;;;4.90;3.75;;;;;;;14.56;58.58;98984.66;5020585;28;20030;-86
2022/04/24 06:25:40;;;;;;;9.05;3.67;;;;;;;14.70;58.60;98984.66;5020183;28;20029;-86
2022/04/24 06:28:06;;;;;;;4.05;2.30;;;;;;;14.83;57.90;98986.50;5036981;28;20100;-87
2022/04/24 06:30:32;;;;;;;6.25;2.58;;;;;;;14.97;57.66;98982.97;5037714;28;20034;-84
2022/04/24 06:32:57;;;;;;;3.75;2.20;;;;;;;15.09;57.77;98985.94;5036151;28;20468;-86
2022/04/24 06:35:23;;;;;;;3.92;2.15;;;;;;;15.25;57.19;98987.16;5036009;28;20079;-84
2022/04/24 06:37:53;;;;;;;12.20;2.78;;;;;;;15.39;56.81;98981.66;5036639;28;20033;-85
2022/04/24 06:40:19;;;;;;;3.85;1.83;;;;;;;15.47;55.86;98974.69;5003633;28;20577;-86
2022/04/24 06:43:01;;;;;;;4.30;1.80;;;;;;;15.58;55.54;98973.28;5036450;28;20369;-86
2022/04/24 06:45:36;;;;;;;;;;;;;;;15.77;55.53;98975.81;5035303;28;20041;-85
2022/04/24 06:48:07;;;;;;;4.90;1.65;;;;;;;15.84;55.57;98970.75;5036406;28;20330;-87
2022/04/24 06:50:33;;;;;;;6.50;2.10;;;;;;;15.97;55.45;98969.03;5003839;28;20018;-86
2022/04/24 06:53:01;;;;;;;8.30;2.10;;;;;;;16.15;54.83;98975.34;5003559;28;20025;-87
2022/04/24 06:55:27;;;;;;;4.80;1.60;;;;;;;16.27;54.50;98963.84;5037345;28;20439;-85
2022/04/24 06:57:53;;;;;;;5.55;2.00;;;;;;;16.42;54.31;98971.56;5035452;28;20029;-87
2022/04/24 07:00:20;;;;;;;18.38;2.67;;;;;;;16.44;54.16;98963.09;5036310;28;20060;-87
2022/04/24 07:02:46;;;;;;;10.10;1.73;;;;;;;16.68;53.74;98959.91;5020037;28;20036;-87
2022/04/24 07:05:12;;;;;;;3.45;1.70;;;;;;;16.70;54.08;98961.19;5036151;28;20060;-87
2022/04/24 07:07:38;;;;;;;3.40;1.83;;;;;;;16.93;53.38;98959.16;5035656;28;20051;-87
2022/04/24 07:10:03;;;;;;;6.15;1.90;;;;;;;17.05;53.35;98952.25;5019830;28;20083;-87
2022/04/24 07:12:30;;;;;;;3.00;1.60;;;;;;;17.18;52.75;98964.88;5019700;28;20079;-87
2022/04/24 07:14:55;;;;;;;8.63;1.90;;;;;;;17.34;52.41;98957.00;5036496;28;20021;-87
2022/04/24 07:17:21;;;;;;;5.80;1.77;;;;;;;17.44;52.37;98950.44;5036368;28;20035;-86
2022/04/24 07:19:47;;;;;;;3.72;1.70;;;;;;;17.65;51.82;98954.03;5019592;28;20022;-86
2022/04/24 07:22:13;;;;;;;3.13;1.58;;;;;;;17.82;51.46;98946.94;5019518;28;20104;-87
2022/04/24 07:24:38;;;;;;;5.47;1.77;;;;;;;17.92;51.37;98941.94;5036194;28;20029;-87
2022/04/24 07:27:05;;;;;;;4.82;1.77;;;;;;;18.08;50.86;98938.69;5002161;28;20029;-87
2022/04/24 07:29:31;;;;;;;6.13;1.80;;;;;;;18.16;50.99;98933.19;5019835;28;20031;-88
2022/04/24 07:31:57;;;;;;;4.72;1.88;;;;;;;18.32;50.66;98938.84;5019381;28;20025;-87
2022/04/24 07:34:23;;;;;;;12.27;2.28;;;;;;;18.45;50.36;98936.19;5037024;28;20017;-87
2022/04/24 07:36:48;;;;;;;9.98;2.13;;;;;;;18.64;49.89;98938.47;5036384;28;20035;-83
2022/04/24 07:39:14;;;;;;;5.25;1.67;;;;;;;18.81;49.04;98932.91;5002904;28;20487;-87
2022/04/24 07:41:39;;;;;;;5.82;1.70;;;;;;;19.00;48.94;98937.88;5019498;28;20021;-87
2022/04/24 07:44:06;;;;;;;4.30;1.85;;;;;;;19.17;48.46;98939.63;5019191;28;20018;-85
2022/04/24 07:46:33;;;;;;;7.80;1.90;;;;;;;19.30;47.53;98938.53;5035558;28;20022;-85
2022/04/24 07:48:59;;;;;;;6.18;2.00;;;;;;;19.42;47.83;98931.50;5034742;28;20033;-86
2022/04/24 07:51:24;;;;;;;8.77;2.10;;;;;;;19.65;47.13;98935.44;5018634;28;20021;-89
2022/04/24 07:53:50;;;;;;;4.00;1.80;;;;;;;19.83;46.66;98935.25;5034756;28;20025;-87
2022/04/24 07:56:16;;;;;;;8.32;2.60;;;;;;;19.97;46.37;98928.28;5034660;28;20124;-86
2022/04/24 07:58:41;;;;;;;9.20;2.45;;;;;;;20.14;45.97;98929.97;5017963;28;20476;-87
2022/04/24 08:01:06;;;;;;;10.02;3.03;;;;;;;20.26;46.32;98923.72;5035277;28;20029;-86
2022/04/24 08:03:32;;;;;;;5.80;2.25;;;;;;;20.38;44.95;98914.69;5019343;28;20018;-87
2022/04/24 08:05:58;;;;;;;7.10;1.98;;;;;;;20.48;44.29;98906.03;5001619;28;20026;-91
2022/04/24 08:08:23;;;;;;;7.95;1.90;;;;;;;20.65;44.88;98907.72;5018011;28;20095;-87
2022/04/24 08:10:51;;;;;;;6.22;1.98;;;;;;;20.88;44.19;98905.22;5018716;28;20044;-87
2022/04/24 08:13:17;;;;;;;6.10;2.20;;;;;;;21.08;42.91;98903.41;5018624;28;20053;-87
2022/04/24 08:15:43;;;;;;;4.55;1.80;;;;;;;21.19;41.94;98890.81;5036007;28;20495;-88
2022/04/24 08:18:11;;;;;;;12.57;2.40;;;;;;;21.43;41.63;98907.47;5018542;28;20021;-87
2022/04/24 08:20:37;;;;;;;13.98;4.50;;;;;;;21.52;41.60;98895.19;5018493;28;20395;-87
2022/04/24 08:23:03;;;;;;;7.63;2.30;;;;;;;21.58;41.24;98898.44;5019670;28;20021;-87
2022/04/24 08:25:29;;;;;;;6.97;2.45;;;;;;;21.69;40.47;98894.03;5034634;28;20030;-86
2022/04/24 08:27:55;;;;;;;7.13;2.38;;;;;;;21.69;39.61;98891.31;5034272;28;20128;-83
2022/04/24 08:30:22;;;;;;;4.95;2.38;;;;;;;21.86;39.60;98881.91;5034305;28;20021;-84
2022/04/24 08:32:48;;;;;;;5.78;1.98;;;;;;;22.02;39.51;98884.63;5017843;28;20428;-87
2022/04/24 08:35:14;;;;;;;9.38;2.40;;;;;;;22.09;38.89;98875.75;5018300;28;20028;-88
2022/04/24 08:37:40;;;;;;;5.47;2.10;;;;;;;22.10;39.15;98878.16;5018137;28;20026;-85
2022/04/24 08:40:07;;;;;;;8.52;2.30;;;;;;;22.21;39.69;98875.66;5036054;28;20060;-86
2022/04/24 08:42:33;;;;;;;3.67;2.13;;;;;;;22.29;38.45;98871.94;5018494;28;20419;-87
2022/04/24 08:44:58;;;;;;;11.40;2.40;;;;;;;22.39;38.63;98867.81;5035555;28;20029;-86
2022/04/24 08:47:24;;;;;;;6.65;2.25;;;;;;;22.52;39.01;98873.97;5017392;28;20036;-86
2022/04/24 08:49:54;;;;;;;6.32;2.10;;;;;;;22.57;39.15;98865.44;5033548;28;20025;-86
2022/04/24 08:52:20;;;;;;;8.57;2.05;;;;;;;22.66;37.66;98857.00;5018300;28;20029;-86
2022/04/24 08:54:46;;;;;;;8.93;2.08;;;;;;;22.72;37.61;98850.88;5034112;28;20104;-86
2022/04/24 08:57:15;;;;;;;7.93;2.00;;;;;;;22.77;38.12;98855.25;5035461;28;20063;-86
2022/04/24 08:59:41;;;;;;;9.48;2.20;;;;;;;22.96;37.65;98854.44;5017177;28;20032;-86
2022/04/24 09:02:06;;;;;;;6.55;2.30;;;;;;;23.00;36.88;98860.78;5000987;28;20472;-87
2022/04/24 09:04:33;;;;;;;12.68;2.95;;;;;;;23.03;37.28;98851.84;5035094;28;20013;-88
2022/04/24 09:06:59;;;;;;;13.25;2.90;;;;;;;23.06;37.53;98845.63;5035695;28;20025;-87
2022/04/24 09:09:25;;;;;;;11.52;3.17;;;;;;;23.34;37.33;98852.78;5034445;28;20025;-85
2022/04/24 09:11:51;;;;;;;8.85;2.40;;;;;;;23.49;36.38;98854.63;5034896;28;20025;-87
2022/04/24 09:14:19;;;;;;;7.20;3.00;;;;;;;23.66;35.66;98852.50;5017717;28;20045;-87
2022/04/24 09:16:49;;;;;;;7.25;2.50;;;;;;;23.77;34.61;98848.00;5018802;28;20108;-86
2022/04/24 09:19:21;;;;;;;7.95;2.25;;;;;;;23.90;34.77;98841.09;5018143;28;20033;-86
2022/04/24 09:21:51;;;;;;;9.95;2.50;;;;;;;23.89;33.66;98834.03;5017379;28;20545;-84
2022/04/24 09:24:16;;;;;;;7.93;3.05;;;;;;;23.92;34.40;98827.78;5016757;28;20024;-87
2022/04/24 09:26:55;;;;;;;11.82;2.45;;;;;;;23.98;33.94;98836.50;5034899;28;20407;-87
2022/04/24 09:29:23;;;;;;;11.52;2.53;;;;;;;24.05;33.78;98828.38;5017296;28;20025;-87
2022/04/24 09:31:50;;;;;;;9.65;2.70;;;;;;;24.04;34.00;98826.00;5034336;28;20033;-86
2022/04/24 09:34:19;;;;;;;9.10;2.65;;;;;;;23.97;33.23;98816.47;5034615;28;20080;-85
2022/04/24 09:36:59;;;;;;;7.40;2.63;;;;;;;23.91;33.10;98812.47;5032678;28;20091;-86
2022/04/24 09:39:35;;;;;;;14.55;2.72;;;;;;;23.72;33.67;98813.34;5033418;28;20036;-89
2022/04/24 09:42:17;;;;;;;16.50;5.88;;;;;;;23.75;33.20;98809.06;5000239;28;20399;-86
2022/04/24 09:44:43;;;;;;;11.80;2.80;;;;;;;23.74;33.48;98799.19;4997202;28;20119;-88
2022/04/24 09:47:09;;;;;;;9.70;2.80;;;;;;;23.69;33.77;98796.78;5030490;28;20030;-87
2022/04/24 09:49:37;;;;;;;5.90;2.30;;;;;;;23.60;33.55;98799.81;5013044;28;20022;-88
2022/04/24 09:52:07;;;;;;;9.82;2.70;;;;;;;23.48;34.13;98789.03;5029183;28;20022;-89
2022/04/24 09:54:32;;;;;;;11.00;3.38;;;;;;;23.47;33.91;98801.16;5029365;28;20470;-86
2022/04/24 09:56:58;;;;;;;14.10;3.20;;;;;;;23.58;34.87;98799.38;5030580;28;20037;-88
2022/04/24 09:59:23;;;;;;;13.05;3.60;;;;;;;23.57;33.73;98784.84;5030877;28;20042;-87
2022/04/24 10:01:49;;;;;;;7.45;3.20;;;;;;;23.79;33.52;98785.19;4997529;28;20118;-85
2022/04/24 10:04:14;;;;;;;11.68;3.25;;;;;;;23.93;33.90;98790.09;5030455;28;20013;-87
2022/04/24 10:06:40;;;;;;;9.75;2.90;;;;;;;24.07;33.85;98772.97;5032044;28;20029;-87
2022/04/24 10:09:07;;;;;;;10.93;3.20;;;;;;;24.15;33.28;98769.16;5030901;28;20463;-87
2022/04/24 10:11:33;;;;;;;9.35;2.95;;;;;;;24.29;33.30;98777.56;5029487;28;20022;-86
2022/04/24 10:14:02;;;;;;;8.63;3.08;;;;;;;24.44;32.24;98769.47;5013860;28;20029;-87
2022/04/24 10:16:58;;;;;;;8.52;2.80;;;;;;;24.48;32.52;98778.56;5031442;28;20101;-93
2022/04/24 10:19:30;;;;;;;6.05;2.65;;;;;;;24.43;33.64;98770.66;5015747;28;20034;-93
2022/04/24 10:22:16;;;;;;;14.27;3.20;;;;;;;24.39;32.90;98776.91;5015785;28;20073;-91
2022/04/24 10:24:42;;;;;;;13.45;3.05;;;;;;;24.58;32.77;98777.94;5015521;28;20393;-93
2022/04/24 10:27:11;;;;;;;7.25;2.80;;;;;;;24.55;31.79;98768.47;4999061;28;20017;-93
2022/04/24 10:29:48;;;;;;;8.52;3.22;;;;;;;24.85;31.33;98761.28;5000087;28;20022;-92
2022/04/24 10:32:24;;;;;;;8.75;3.20;;;;;;;24.97;32.18;98772.81;5005198;28;20041;-93
2022/04/24 10:34:49;;;;;;;12.48;2.80;;;;;;;24.91;32.35;98759.75;5001322;28;20022;-95
2022/04/24 10:37:27;;;;;;;10.20;3.13;;;;;;;24.95;31.56;98753.09;5003277;28;20029;-93
2022/04/24 10:39:58;;;;;;;9.48;2.70;;;;;;;25.24;30.94;98766.38;5015435;28;20057;-94
2022/04/24 10:42:31;;;;;;;12.75;3.15;;;;;;;25.36;30.08;98766.06;5015306;28;20091;-92
2022/04/24 10:45:08;;;;;;;9.65;3.10;;;;;;;25.38;29.99;98753.47;5015227;28;20050;-93
2022/04/24 10:47:46;;;;;;;10.32;3.22;;;;;;;25.47;30.61;98749.59;5015062;28;20030;-92
2022/04/24 10:50:12;;;;;;;9.45;3.00;;;;;;;25.56;31.50;98750.81;5014045;28;20109;-92
2022/04/24 10:52:39;;;;;;;11.73;3.30;;;;;;;25.51;31.79;98748.44;4999523;28;20050;-94
2022/04/24 10:55:12;;;;;;;8.93;2.85;;;;;;;25.69;31.05;98753.25;5015263;28;20034;-93
2022/04/24 10:57:44;;;;;;;8.02;2.70;;;;;;;25.80;29.99;98748.63;5015449;28;20129;-92
2022/04/24 11:00:14;;;;;;;8.40;2.65;;;;;;;25.89;29.95;98751.81;5018098;28;20540;-94
2022/04/24 11:02:40;;;;;;;8.82;2.60;;;;;;;26.00;30.03;98751.88;5001966;28;20022;-94
2022/04/24 11:05:06;;;;;;;11.02;2.72;;;;;;;26.07;29.86;98737.34;5002250;28;20034;-95
2022/04/24 11:07:32;;;;;;;13.80;2.60;;;;;;;26.15;29.48;98733.44;5019107;28;20115;-94
2022/04/24 11:10:20;;;;;;;5.57;2.20;;;;;;;26.27;29.02;98738.56;5003250;28;20033;-93
2022/04/24 11:12:48;;;;;;;12.25;2.78;;;;;;;26.04;29.69;98758.19;5018296;28;20029;-87
2022/04/24 11:15:14;;;;;;;8.88;2.50;;;;;;;25.91;29.45;98746.72;5016661;28;20033;-87
2022/04/24 11:17:40;;;;;;;13.02;2.67;;;;;;;25.79;30.00;98724.94;5000055;28;20049;-87
2022/04/24 11:20:10;;;;;;;11.55;2.85;;;;;;;25.93;28.91;98730.56;5015943;28;20189;-87
2022/04/24 11:22:52;;;;;;;7.97;2.53;;;;;;;25.95;29.33;98725.44;5016859;28;20014;-87
2022/04/24 11:25:20;;;;;;;9.20;3.10;;;;;;;26.01;30.20;98726.66;5032779;28;20048;-87
2022/04/24 11:27:50;;;;;;;10.35;3.03;;;;;;;26.18;29.43;98730.66;5016814;28;20440;-87
2022/04/24 11:30:23;;;;;;;10.32;3.00;;;;;;;26.19;28.98;98723.97;4999961;28;20396;-85